createdAt,value
2024-04-08T00:02:12.928Z,3.20
2024-04-08T00:04:39.635Z,2.78
2024-04-08T00:07:06.221Z,2.17
2024-04-08T00:09:32.784Z,2.25
2024-04-08T00:11:59.343Z,4.30
2024-04-08T00:14:26.026Z,3.17
2024-04-08T00:16:52.979Z,4.13
2024-04-08T00:19:19.534Z,3.90
2024-04-08T00:21:46.080Z,3.55
2024-04-08T00:24:12.717Z,4.80
2024-04-08T00:26:39.354Z,2.80
2024-04-08T00:29:05.962Z,1.98
2024-04-08T00:31:33.060Z,2.85
2024-04-08T00:33:59.686Z,3.13
2024-04-08T00:36:26.250Z,3.92
2024-04-08T00:38:52.805Z,3.72
2024-04-08T00:41:19.414Z,4.20
2024-04-08T00:43:46.066Z,2.08
2024-04-08T00:46:24.109Z,3.00
2024-04-08T00:48:56.087Z,2.25
2024-04-08T00:51:24.115Z,2.30
2024-04-08T00:53:51.063Z,4.13
2024-04-08T00:56:20.201Z,2.05
2024-04-08T00:58:50.175Z,3.47
2024-04-08T01:01:18.623Z,3.65
2024-04-08T01:03:46.565Z,3.03
2024-04-08T01:06:13.870Z,3.65
2024-04-08T01:08:41.843Z,3.65
2024-04-08T01:11:09.808Z,2.88
2024-04-08T01:13:36.551Z,2.78
2024-04-08T01:16:03.258Z,3.38
2024-04-08T01:18:29.982Z,4.25
2024-04-08T01:20:56.528Z,3.15
2024-04-08T01:23:26.088Z,2.80
2024-04-08T01:25:52.650Z,3.35
2024-04-08T01:28:22.280Z,3.92
2024-04-08T01:30:51.172Z,2.90
2024-04-08T01:33:18.065Z,4.22
2024-04-08T01:35:44.800Z,4.03
2024-04-08T01:38:11.378Z,3.45
2024-04-08T01:40:37.956Z,3.45
2024-04-08T01:43:04.670Z,3.03
2024-04-08T01:45:31.438Z,3.50
2024-04-08T01:47:58.204Z,3.58
2024-04-08T01:50:24.840Z,2.97
2024-04-08T01:52:51.422Z,4.20
2024-04-08T01:55:17.986Z,3.13
2024-04-08T01:57:45.361Z,4.15
2024-04-08T02:00:12.053Z,3.80
2024-04-08T02:02:38.678Z,5.90
2024-04-08T02:05:05.452Z,5.38
2024-04-08T02:07:32.013Z,4.35
2024-04-08T02:09:59.435Z,2.83
2024-04-08T02:12:27.951Z,4.32
2024-04-08T02:14:54.517Z,3.40
2024-04-08T02:17:21.086Z,5.13
2024-04-08T02:19:47.668Z,5.55
2024-04-08T02:22:14.222Z,3.60
2024-04-08T02:24:40.874Z,5.38
2024-04-08T02:27:09.842Z,4.72
2024-04-08T02:32:05.874Z,4.47
2024-04-08T02:34:32.702Z,3.53
2024-04-08T02:36:59.242Z,4.90
2024-04-08T02:39:25.862Z,3.80
2024-04-08T02:41:52.560Z,4.68
2024-04-08T02:44:19.346Z,3.92
2024-04-08T02:46:45.918Z,2.92
2024-04-08T02:49:12.507Z,3.70
2024-04-08T02:51:39.072Z,3.13
2024-04-08T02:54:05.808Z,4.18
2024-04-08T02:56:33.607Z,4.82
2024-04-08T02:59:00.236Z,4.43
2024-04-08T03:01:26.771Z,2.92
2024-04-08T03:03:54.948Z,4.60
2024-04-08T03:06:21.497Z,5.20
2024-04-08T03:08:48.182Z,4.65
2024-04-08T03:11:14.932Z,4.07
2024-04-08T03:13:41.809Z,3.92
2024-04-08T03:16:08.950Z,4.43
2024-04-08T03:18:35.599Z,4.53
2024-04-08T03:21:04.533Z,3.95
2024-04-08T03:23:31.508Z,5.50
2024-04-08T03:26:02.615Z,4.18
2024-04-08T03:28:30.084Z,3.35
2024-04-08T03:30:57.717Z,3.40
2024-04-08T03:33:30.108Z,3.92
2024-04-08T03:35:57.251Z,4.68
2024-04-08T03:38:23.919Z,5.00
2024-04-08T03:41:01.330Z,6.53
2024-04-08T03:43:29.003Z,3.25
2024-04-08T03:45:56.497Z,4.65
2024-04-08T03:48:23.129Z,3.95
2024-04-08T03:50:49.901Z,4.65
2024-04-08T03:53:16.947Z,4.13
2024-04-08T03:55:43.579Z,4.38
2024-04-08T03:58:10.144Z,3.33
2024-04-08T04:00:36.792Z,3.75
2024-04-08T04:03:08.922Z,5.80
2024-04-08T04:05:37.137Z,5.00
2024-04-08T04:08:04.057Z,4.95
2024-04-08T04:10:30.694Z,4.10
2024-04-08T04:12:57.273Z,5.13
2024-04-08T04:15:23.886Z,4.25
2024-04-08T04:17:50.569Z,4.43
2024-04-08T04:20:20.386Z,4.00
2024-04-08T04:22:48.006Z,4.70
2024-04-08T04:25:16.939Z,5.97
2024-04-08T04:30:10.409Z,4.53
2024-04-08T04:32:37.129Z,4.43
2024-04-08T04:35:03.965Z,6.28
2024-04-08T04:37:30.543Z,5.22
2024-04-08T04:39:57.192Z,5.50
2024-04-08T04:42:23.756Z,4.22
2024-04-08T04:44:51.958Z,4.13
2024-04-08T04:47:18.732Z,4.25
2024-04-08T04:49:45.369Z,4.72
2024-04-08T04:52:13.526Z,3.55
2024-04-08T04:54:40.723Z,3.30
2024-04-08T04:57:07.279Z,3.90
2024-04-08T04:59:33.867Z,3.63
2024-04-08T05:02:00.800Z,3.10
2024-04-08T05:04:27.405Z,4.65
2024-04-08T05:06:54.100Z,4.93
2024-04-08T05:09:20.680Z,4.88
2024-04-08T05:11:47.320Z,2.97
2024-04-08T05:14:13.948Z,4.25
2024-04-08T05:16:40.562Z,3.65
2024-04-08T05:19:07.143Z,3.70
2024-04-08T05:21:33.724Z,3.50
2024-04-08T05:24:00.793Z,4.47
2024-04-08T05:26:30.886Z,5.82
2024-04-08T05:28:57.669Z,4.95
2024-04-08T05:31:24.272Z,3.67
2024-04-08T05:33:51.231Z,4.20
2024-04-08T05:36:33.836Z,3.10
2024-04-08T05:39:01.604Z,3.72
2024-04-08T05:41:34.525Z,3.70
2024-04-08T05:44:01.403Z,4.75
2024-04-08T05:46:31.244Z,4.07
2024-04-08T05:48:57.810Z,4.10
2024-04-08T05:51:29.698Z,4.22
2024-04-08T05:53:56.510Z,4.40
2024-04-08T05:58:53.248Z,4.72
2024-04-08T06:01:19.870Z,5.28
2024-04-08T06:03:46.735Z,5.30
2024-04-08T06:09:10.563Z,4.30
2024-04-08T06:11:37.299Z,5.10
2024-04-08T06:14:03.978Z,5.45
2024-04-08T06:16:33.430Z,3.95
2024-04-08T06:19:01.624Z,4.35
2024-04-08T06:21:28.478Z,7.28
2024-04-08T06:26:37.299Z,5.78
2024-04-08T06:29:04.061Z,6.90
2024-04-08T06:31:31.078Z,6.82
2024-04-08T06:33:57.835Z,5.30
2024-04-08T06:36:24.487Z,4.60
2024-04-08T06:39:04.070Z,6.07
2024-04-08T06:41:30.826Z,7.78
2024-04-08T06:43:57.485Z,5.70
2024-04-08T06:46:24.346Z,5.65
2024-04-08T06:48:50.952Z,6.70
2024-04-08T06:51:17.575Z,7.15
2024-04-08T06:53:44.346Z,5.60
2024-04-08T06:56:12.457Z,5.65
2024-04-08T06:58:39.172Z,5.20
2024-04-08T07:01:05.848Z,5.88
2024-04-08T07:03:35.662Z,7.53
2024-04-08T07:06:02.445Z,8.10
2024-04-08T07:08:29.325Z,4.82
2024-04-08T07:10:56.005Z,6.55
2024-04-08T07:13:23.776Z,6.28
2024-04-08T07:15:55.836Z,7.13
2024-04-08T07:18:22.898Z,8.88
2024-04-08T07:20:51.774Z,8.35
2024-04-08T07:23:18.565Z,6.45
2024-04-08T07:25:50.479Z,7.53
2024-04-08T07:28:17.354Z,9.55
2024-04-08T07:30:44.018Z,6.30
2024-04-08T07:33:10.744Z,6.57
2024-04-08T07:35:38.145Z,9.77
2024-04-08T07:38:05.145Z,10.02
2024-04-08T07:40:31.928Z,6.97
2024-04-08T07:42:58.517Z,6.93
2024-04-08T07:45:26.047Z,6.90
2024-04-08T07:47:52.791Z,6.93
2024-04-08T07:50:19.574Z,7.57
2024-04-08T07:52:49.274Z,8.65
2024-04-08T07:55:17.343Z,8.43
2024-04-08T07:57:44.018Z,6.72
2024-04-08T08:00:11.269Z,8.95
2024-04-08T08:02:37.973Z,6.13
2024-04-08T08:05:04.927Z,6.80
2024-04-08T08:07:32.110Z,6.85
2024-04-08T08:09:58.762Z,7.45
2024-04-08T08:12:25.568Z,6.80
2024-04-08T08:14:54.187Z,7.30
2024-04-08T08:17:27.373Z,6.95
2024-04-08T08:19:56.126Z,5.00
2024-04-08T08:22:32.587Z,7.00
2024-04-08T08:25:19.343Z,5.05
2024-04-08T08:28:07.604Z,5.70
2024-04-08T08:30:41.535Z,5.85
2024-04-08T08:33:08.567Z,7.60
2024-04-08T08:35:35.268Z,5.55
2024-04-08T08:38:01.960Z,5.60
2024-04-08T08:40:33.623Z,4.85
2024-04-08T08:43:00.312Z,4.95
2024-04-08T08:45:28.580Z,5.40
2024-04-08T08:47:58.609Z,4.32
2024-04-08T08:50:27.775Z,4.13
2024-04-08T08:52:54.398Z,5.32
2024-04-08T08:55:25.155Z,5.38
2024-04-08T08:57:54.900Z,4.30
2024-04-08T09:00:21.695Z,5.15
2024-04-08T09:02:49.666Z,4.93
2024-04-08T09:05:17.409Z,4.72
2024-04-08T09:07:44.106Z,5.95
2024-04-08T09:10:10.829Z,4.85
2024-04-08T09:12:42.449Z,3.88
2024-04-08T09:15:12.750Z,4.72
2024-04-08T09:17:39.842Z,5.22
2024-04-08T09:20:07.608Z,5.63
2024-04-08T09:22:34.284Z,6.57
2024-04-08T09:25:01.096Z,5.55
2024-04-08T09:27:27.756Z,5.45
2024-04-08T09:29:54.439Z,5.32
2024-04-08T09:32:21.215Z,7.53
2024-04-08T09:34:47.847Z,5.97
2024-04-08T09:37:15.393Z,6.82
2024-04-08T09:39:42.230Z,6.97
2024-04-08T09:42:13.632Z,8.18
2024-04-08T09:44:44.864Z,6.40
2024-04-08T09:47:14.162Z,7.28
2024-04-08T09:49:49.759Z,6.50
2024-04-08T09:52:17.669Z,7.60
2024-04-08T09:54:44.582Z,6.70
2024-04-08T09:57:17.942Z,4.80
2024-04-08T09:59:57.775Z,6.00
2024-04-08T10:02:31.586Z,7.53
2024-04-08T10:05:03.816Z,5.95
2024-04-08T10:07:49.865Z,7.18
2024-04-08T10:10:16.869Z,7.57
2024-04-08T10:12:43.643Z,5.43
2024-04-08T10:15:11.151Z,6.95
2024-04-08T10:20:44.832Z,5.00
2024-04-08T10:23:16.132Z,5.45
2024-04-08T10:25:47.207Z,5.53
2024-04-08T10:28:21.915Z,4.82
2024-04-08T10:30:54.052Z,7.43
2024-04-08T10:33:25.775Z,5.32
2024-04-08T10:36:21.665Z,5.00
2024-04-08T10:38:48.735Z,3.78
2024-04-08T10:41:21.298Z,4.07
2024-04-08T10:43:48.004Z,5.22
2024-04-08T10:46:20.118Z,4.70
2024-04-08T10:48:46.759Z,5.65
2024-04-08T10:51:17.861Z,3.78
2024-04-08T10:53:44.813Z,5.25
2024-04-08T10:56:11.513Z,6.20
2024-04-08T10:58:38.101Z,5.50
2024-04-08T11:01:05.649Z,5.32
2024-04-08T11:03:33.013Z,5.53
2024-04-08T11:05:59.820Z,5.50
2024-04-08T11:08:26.991Z,4.88
2024-04-08T11:10:54.400Z,5.88
2024-04-08T11:13:21.273Z,4.32
2024-04-08T11:15:50.909Z,4.28
2024-04-08T11:18:20.429Z,5.65
2024-04-08T11:20:47.667Z,6.82
2024-04-08T11:23:15.464Z,5.15
2024-04-08T11:25:42.141Z,5.75
2024-04-08T11:28:10.096Z,5.20
2024-04-08T11:30:38.826Z,6.25
2024-04-08T11:35:32.563Z,5.90
2024-04-08T11:38:07.111Z,5.88
2024-04-08T11:40:40.787Z,4.55
2024-04-08T11:43:07.473Z,4.93
2024-04-08T11:45:34.372Z,6.20
2024-04-08T11:48:01.198Z,4.38
2024-04-08T11:50:27.858Z,4.90
2024-04-08T11:52:54.532Z,6.60
2024-04-08T11:55:21.355Z,4.60
2024-04-08T11:57:50.226Z,4.95
2024-04-08T12:00:22.236Z,5.18
2024-04-08T12:02:54.870Z,6.15
2024-04-08T12:05:21.826Z,6.65
2024-04-08T12:07:48.477Z,5.97
2024-04-08T12:10:15.162Z,6.10
2024-04-08T12:12:41.992Z,6.38
2024-04-08T12:15:09.558Z,8.88
2024-04-08T12:17:36.398Z,6.32
2024-04-08T12:20:04.144Z,7.60
2024-04-08T12:22:30.837Z,8.45
2024-04-08T12:24:57.467Z,8.15
2024-04-08T12:27:29.214Z,7.55
2024-04-08T12:29:56.075Z,7.82
2024-04-08T12:32:23.729Z,7.22
2024-04-08T12:34:52.780Z,9.23
2024-04-08T12:37:20.622Z,9.93
2024-04-08T12:39:47.298Z,7.78
2024-04-08T12:42:13.944Z,9.20
2024-04-08T12:44:43.638Z,8.00
2024-04-08T12:47:12.922Z,7.18
2024-04-08T12:49:39.590Z,7.53
2024-04-08T12:52:06.659Z,7.18
2024-04-08T12:54:42.998Z,7.22
2024-04-08T12:57:12.404Z,8.35
2024-04-08T12:59:39.049Z,8.13
2024-04-08T13:02:05.813Z,8.75
2024-04-08T13:04:32.596Z,8.43
2024-04-08T13:07:03.643Z,9.25
2024-04-08T13:09:35.153Z,9.95
2024-04-08T13:12:02.300Z,9.68
2024-04-08T13:14:28.895Z,10.45
2024-04-08T13:16:55.523Z,7.70
2024-04-08T13:19:22.148Z,9.52
2024-04-08T13:21:48.728Z,9.90
2024-04-08T13:24:15.525Z,9.52
2024-04-08T13:26:43.824Z,12.70
2024-04-08T13:29:10.674Z,10.95
2024-04-08T13:31:39.058Z,12.25
2024-04-08T13:34:06.541Z,12.65
2024-04-08T13:36:33.554Z,14.80
2024-04-08T13:39:00.290Z,15.77
2024-04-08T13:41:26.876Z,13.98
2024-04-08T13:43:53.641Z,16.58
2024-04-08T13:46:20.242Z,14.20
2024-04-08T13:48:47.046Z,18.90
2024-04-08T13:51:14.720Z,17.08
2024-04-08T13:53:45.853Z,14.95
2024-04-08T13:56:12.563Z,18.15
2024-04-08T13:58:39.179Z,16.25
2024-04-08T14:01:07.447Z,17.38
2024-04-08T14:03:46.675Z,13.85
2024-04-08T14:06:14.126Z,13.00
2024-04-08T14:08:41.008Z,15.18
2024-04-08T14:11:10.522Z,13.57
2024-04-08T14:13:37.670Z,11.85
2024-04-08T14:16:08.284Z,10.95
2024-04-08T14:18:35.228Z,10.55
2024-04-08T14:21:01.893Z,10.88
2024-04-08T14:23:28.540Z,9.18
2024-04-08T14:25:57.482Z,8.32
2024-04-08T14:28:26.206Z,11.98
2024-04-08T14:30:52.880Z,7.75
2024-04-08T14:33:19.861Z,8.13
2024-04-08T14:35:46.694Z,8.55
2024-04-08T14:38:38.217Z,8.88
2024-04-08T14:41:01.183Z,8.10
2024-04-08T14:43:33.301Z,7.68
2024-04-08T14:46:06.683Z,7.10
2024-04-08T14:48:33.486Z,6.88
2024-04-08T14:51:00.299Z,7.93
2024-04-08T14:53:27.230Z,7.10
2024-04-08T14:55:54.492Z,7.25
2024-04-08T14:58:22.432Z,6.35
2024-04-08T15:00:49.840Z,5.35
2024-04-08T15:03:16.611Z,5.57
2024-04-08T15:05:44.607Z,6.22
2024-04-08T15:08:15.713Z,5.65
2024-04-08T15:10:42.295Z,7.95
2024-04-08T15:13:08.934Z,5.93
2024-04-08T15:15:35.584Z,7.45
2024-04-08T15:18:02.231Z,5.13
2024-04-08T15:20:29.591Z,4.57
2024-04-08T15:22:57.547Z,7.03
2024-04-08T15:25:24.453Z,6.30
2024-04-08T15:27:51.071Z,6.57
2024-04-08T15:30:17.859Z,4.30
2024-04-08T15:32:44.676Z,6.43
2024-04-08T15:35:28.478Z,5.70
2024-04-08T15:37:55.600Z,7.95
2024-04-08T15:40:22.490Z,5.68
2024-04-08T15:42:49.170Z,6.38
2024-04-08T15:45:18.816Z,4.25
2024-04-08T15:47:46.079Z,4.47
2024-04-08T15:50:12.850Z,4.05
2024-04-08T15:52:39.416Z,5.28
2024-04-08T15:55:06.128Z,5.35
2024-04-08T15:57:35.365Z,4.15
2024-04-08T16:00:02.160Z,5.72
2024-04-08T16:02:28.847Z,7.60
2024-04-08T16:04:56.402Z,5.85
2024-04-08T16:07:23.165Z,6.22
2024-04-08T16:09:49.697Z,5.75
2024-04-08T16:12:16.966Z,5.05
2024-04-08T16:14:43.893Z,4.82
2024-04-08T16:17:11.960Z,5.50
2024-04-08T16:19:41.199Z,4.30
2024-04-08T16:22:07.767Z,6.50
2024-04-08T16:24:34.587Z,6.00
2024-04-08T16:27:04.594Z,5.22
2024-04-08T16:29:31.311Z,7.03
2024-04-08T16:31:57.929Z,6.72
2024-04-08T16:34:24.726Z,6.85
2024-04-08T16:36:51.369Z,4.78
2024-04-08T16:39:19.613Z,7.43
2024-04-08T16:41:46.910Z,6.00
2024-04-08T16:44:13.545Z,7.00
2024-04-08T16:46:40.122Z,5.63
2024-04-08T16:49:06.750Z,6.20
2024-04-08T16:51:34.999Z,5.30
2024-04-08T16:54:01.722Z,7.05
2024-04-08T16:56:31.783Z,5.32
2024-04-08T16:58:58.334Z,6.20
2024-04-08T17:01:34.244Z,7.20
2024-04-08T17:04:06.426Z,5.88
2024-04-08T17:06:50.087Z,7.65
2024-04-08T17:09:17.992Z,9.32
2024-04-08T17:11:46.792Z,9.10
2024-04-08T17:14:13.375Z,8.25
2024-04-08T17:16:39.999Z,6.38
2024-04-08T17:19:06.959Z,8.55
2024-04-08T17:21:36.721Z,9.00
2024-04-08T17:24:04.999Z,8.10
2024-04-08T17:26:31.573Z,5.30
2024-04-08T17:28:58.100Z,8.45
2024-04-08T17:31:24.659Z,7.32
2024-04-08T17:33:51.474Z,8.20
2024-04-08T17:36:18.142Z,7.55
2024-04-08T17:38:44.795Z,4.43
2024-04-08T17:41:13.891Z,12.10
2024-04-08T17:43:42.116Z,8.82
2024-04-08T17:46:09.414Z,9.13
2024-04-08T17:48:37.758Z,6.97
2024-04-08T17:51:08.918Z,6.90
2024-04-08T17:53:36.828Z,8.93
2024-04-08T17:56:09.802Z,8.18
2024-04-08T17:58:37.714Z,7.57
2024-04-08T18:01:08.046Z,10.05
2024-04-08T18:03:36.294Z,9.63
2024-04-08T18:06:17.242Z,7.30
2024-04-08T18:08:46.109Z,10.55
2024-04-08T18:11:13.824Z,11.60
2024-04-08T18:13:41.715Z,10.82
2024-04-08T18:16:16.898Z,10.77
2024-04-08T18:18:46.269Z,11.02
2024-04-08T18:21:13.214Z,9.90
2024-04-08T18:23:42.241Z,10.23
2024-04-08T18:26:16.740Z,9.55
2024-04-08T18:28:45.595Z,10.90
2024-04-08T18:31:14.014Z,13.00
2024-04-08T18:33:43.385Z,9.82
2024-04-08T18:36:10.295Z,11.48
2024-04-08T18:38:37.129Z,10.80
2024-04-08T18:41:11.659Z,11.95
2024-04-08T18:43:39.878Z,11.68
2024-04-08T18:46:10.499Z,11.68
2024-04-08T18:48:38.185Z,10.32
2024-04-08T18:51:05.608Z,11.38
2024-04-08T18:53:33.636Z,8.20
2024-04-08T18:56:00.399Z,11.38
2024-04-08T18:58:26.988Z,13.77
2024-04-08T19:00:53.717Z,12.50
2024-04-08T19:03:21.128Z,12.68
2024-04-08T19:05:50.118Z,13.73
2024-04-08T19:08:17.336Z,12.70
2024-04-08T19:10:43.984Z,15.02
2024-04-08T19:13:13.323Z,14.02
2024-04-08T19:15:41.803Z,13.18
2024-04-08T19:18:08.665Z,13.52
2024-04-08T19:20:38.865Z,15.52
2024-04-08T19:23:05.486Z,14.55
2024-04-08T19:25:32.176Z,13.35
2024-04-08T19:27:59.169Z,13.20
2024-04-08T19:30:26.196Z,15.13
2024-04-08T19:32:54.278Z,13.35
2024-04-08T19:35:20.985Z,13.82
2024-04-08T19:37:47.700Z,14.13
2024-04-08T19:40:16.896Z,13.07
2024-04-08T19:42:43.567Z,13.25
2024-04-08T19:45:19.023Z,14.48
2024-04-08T19:47:49.230Z,12.25
2024-04-08T19:50:16.309Z,16.75
2024-04-08T19:53:01.481Z,14.50
2024-04-08T19:55:28.400Z,14.32
2024-04-08T19:57:54.967Z,16.95
2024-04-08T20:00:22.697Z,15.35
2024-04-08T20:02:49.420Z,13.50
2024-04-08T20:05:21.790Z,15.40
2024-04-08T20:07:48.459Z,14.88
2024-04-08T20:10:15.034Z,15.25
2024-04-08T20:12:41.690Z,13.43
2024-04-08T20:15:08.630Z,15.07
2024-04-08T20:17:38.827Z,17.35
2024-04-08T20:20:08.911Z,13.38
2024-04-08T20:22:35.521Z,17.50
2024-04-08T20:25:02.087Z,14.85
2024-04-08T20:27:37.980Z,14.88
2024-04-08T20:30:05.328Z,15.45
2024-04-08T20:32:32.091Z,12.85
2024-04-08T20:34:58.905Z,11.77
2024-04-08T20:37:25.530Z,12.65
2024-04-08T20:39:53.954Z,15.52
2024-04-08T20:42:20.639Z,13.50
2024-04-08T20:44:47.538Z,14.80
2024-04-08T20:47:19.162Z,13.15
2024-04-08T20:49:47.950Z,15.57
2024-04-08T20:52:15.847Z,13.90
2024-04-08T20:54:43.466Z,16.30
2024-04-08T20:57:10.088Z,18.75
2024-04-08T20:59:36.695Z,15.52
2024-04-08T21:02:03.378Z,14.15
2024-04-08T21:04:31.551Z,17.40
2024-04-08T21:06:58.185Z,15.98
2024-04-08T21:09:29.362Z,17.88
2024-04-08T21:11:56.102Z,16.50
2024-04-08T21:14:22.818Z,14.45
2024-04-08T21:16:49.387Z,16.38
2024-04-08T21:19:19.049Z,13.52
2024-04-08T21:21:45.771Z,14.80
2024-04-08T21:24:12.514Z,18.15
2024-04-08T21:26:39.134Z,15.50
2024-04-08T21:29:05.810Z,15.38
2024-04-08T21:31:32.463Z,14.02
2024-04-08T21:33:59.375Z,15.65
2024-04-08T21:36:26.098Z,13.98
2024-04-08T21:38:53.811Z,15.10
2024-04-08T21:41:21.491Z,13.55
2024-04-08T21:43:48.127Z,15.73
2024-04-08T21:46:17.761Z,14.30
2024-04-08T21:48:44.711Z,13.70
2024-04-08T21:51:17.957Z,13.48
2024-04-08T21:53:45.090Z,17.17
2024-04-08T21:56:11.824Z,14.57
2024-04-08T21:58:41.113Z,14.00
2024-04-08T22:01:09.760Z,14.85
2024-04-08T22:03:37.431Z,13.85
2024-04-08T22:06:12.112Z,14.13
2024-04-08T22:08:41.794Z,12.57
2024-04-08T22:11:12.934Z,15.82
2024-04-08T22:13:41.969Z,16.55
2024-04-08T22:16:08.958Z,14.07
2024-04-08T22:18:37.264Z,14.98
2024-04-08T22:21:04.101Z,14.15
2024-04-08T22:23:30.812Z,13.40
2024-04-08T22:25:57.381Z,16.52
2024-04-08T22:28:25.611Z,13.32
2024-04-08T22:30:52.264Z,15.50
2024-04-08T22:33:19.060Z,17.00
2024-04-08T22:35:46.018Z,16.73
2024-04-08T22:38:12.609Z,14.27
2024-04-08T22:40:41.102Z,15.25
2024-04-08T22:43:07.699Z,15.50
2024-04-08T22:45:34.350Z,19.73
2024-04-08T22:48:01.065Z,12.68
2024-04-08T22:50:27.844Z,16.48
2024-04-08T22:52:54.400Z,15.73
2024-04-08T22:55:22.259Z,15.90
2024-04-08T22:57:48.860Z,12.52
2024-04-08T23:00:15.920Z,13.43
2024-04-08T23:02:47.245Z,14.50
2024-04-08T23:05:14.532Z,14.18
2024-04-08T23:07:41.157Z,16.40
2024-04-08T23:10:08.348Z,15.50
2024-04-08T23:12:35.234Z,17.80
2024-04-08T23:15:02.231Z,15.27
2024-04-08T23:17:29.065Z,18.52
2024-04-08T23:19:55.723Z,14.40
2024-04-08T23:22:22.516Z,15.05
2024-04-08T23:24:49.168Z,15.70
2024-04-08T23:27:15.787Z,15.70
2024-04-08T23:29:42.424Z,11.93
2024-04-08T23:32:10.252Z,12.15
2024-04-08T23:34:37.425Z,10.88
2024-04-08T23:37:04.491Z,13.50
2024-04-08T23:39:31.249Z,9.55
2024-04-08T23:41:57.946Z,13.70
2024-04-08T23:44:24.879Z,11.18
2024-04-08T23:46:51.480Z,12.65
2024-04-08T23:49:18.128Z,10.63
2024-04-08T23:51:47.441Z,13.70
2024-04-08T23:54:14.191Z,11.40
2024-04-08T23:56:40.834Z,9.45
2024-04-08T23:59:07.897Z,10.73
